sensor_id;sensor_type;location;lat;lon;timestamp;P1;durP1;ratioP1;P2;durP2;ratioP2
13443;SDS011;6794;59.218;18.218;2023-09-19T00:01:05;7.23;;;5.70;;
13443;SDS011;6794;59.218;18.218;2023-09-19T00:03:37;7.53;;;5.40;;
13443;SDS011;6794;59.218;18.218;2023-09-19T00:06:04;10.30;;;5.97;;
13443;SDS011;6794;59.218;18.218;2023-09-19T00:08:30;10.20;;;7.20;;
13443;SDS011;6794;59.218;18.218;2023-09-19T00:10:58;7.10;;;6.27;;
13443;SDS011;6794;59.218;18.218;2023-09-19T00:13:31;9.67;;;6.83;;
13443;SDS011;6794;59.218;18.218;2023-09-19T00:15:57;11.53;;;7.43;;
13443;SDS011;6794;59.218;18.218;2023-09-19T00:18:24;9.63;;;7.43;;
13443;SDS011;6794;59.218;18.218;2023-09-19T00:20:57;10.33;;;7.17;;
13443;SDS011;6794;59.218;18.218;2023-09-19T00:23:23;13.20;;;7.33;;
13443;SDS011;6794;59.218;18.218;2023-09-19T00:25:50;11.40;;;6.70;;
13443;SDS011;6794;59.218;18.218;2023-09-19T00:28:16;10.77;;;7.20;;
13443;SDS011;6794;59.218;18.218;2023-09-19T00:30:43;13.90;;;7.40;;
13443;SDS011;6794;59.218;18.218;2023-09-19T00:33:09;11.00;;;7.53;;
13443;SDS011;6794;59.218;18.218;2023-09-19T00:35:36;10.37;;;7.40;;
13443;SDS011;6794;59.218;18.218;2023-09-19T00:38:02;10.53;;;7.20;;
13443;SDS011;6794;59.218;18.218;2023-09-19T00:40:29;13.83;;;8.13;;
13443;SDS011;6794;59.218;18.218;2023-09-19T00:42:58;13.00;;;7.47;;
13443;SDS011;6794;59.218;18.218;2023-09-19T00:45:25;11.80;;;7.30;;
13443;SDS011;6794;59.218;18.218;2023-09-19T00:47:51;11.93;;;7.27;;
13443;SDS011;6794;59.218;18.218;2023-09-19T00:50:18;14.70;;;8.50;;
13443;SDS011;6794;59.218;18.218;2023-09-19T00:52:44;12.73;;;8.60;;
13443;SDS011;6794;59.218;18.218;2023-09-19T00:55:11;12.18;;;8.20;;
13443;SDS011;6794;59.218;18.218;2023-09-19T00:57:38;9.83;;;7.53;;
13443;SDS011;6794;59.218;18.218;2023-09-19T01:00:05;9.37;;;7.00;;
13443;SDS011;6794;59.218;18.218;2023-09-19T01:02:33;11.47;;;7.90;;
13443;SDS011;6794;59.218;18.218;2023-09-19T01:04:59;12.40;;;7.73;;
13443;SDS011;6794;59.218;18.218;2023-09-19T01:07:26;10.50;;;7.70;;
13443;SDS011;6794;59.218;18.218;2023-09-19T01:09:54;14.03;;;8.03;;
13443;SDS011;6794;59.218;18.218;2023-09-19T01:12:39;11.50;;;7.73;;
13443;SDS011;6794;59.218;18.218;2023-09-19T01:17:45;11.37;;;8.07;;
13443;SDS011;6794;59.218;18.218;2023-09-19T01:20:17;12.13;;;8.83;;
13443;SDS011;6794;59.218;18.218;2023-09-19T01:30:31;11.87;;;8.17;;
13443;SDS011;6794;59.218;18.218;2023-09-19T01:32:58;13.30;;;8.73;;
13443;SDS011;6794;59.218;18.218;2023-09-19T01:35:24;11.60;;;8.53;;
13443;SDS011;6794;59.218;18.218;2023-09-19T01:37:51;12.57;;;7.77;;
13443;SDS011;6794;59.218;18.218;2023-09-19T01:40:18;18.40;;;9.20;;
13443;SDS011;6794;59.218;18.218;2023-09-19T01:50:42;16.57;;;9.60;;
13443;SDS011;6794;59.218;18.218;2023-09-19T01:53:21;12.17;;;10.07;;
13443;SDS011;6794;59.218;18.218;2023-09-19T01:55:49;14.70;;;9.57;;
13443;SDS011;6794;59.218;18.218;2023-09-19T01:58:18;15.77;;;9.93;;
13443;SDS011;6794;59.218;18.218;2023-09-19T02:00:47;14.80;;;10.33;;
13443;SDS011;6794;59.218;18.218;2023-09-19T02:03:15;18.30;;;10.03;;
13443;SDS011;6794;59.218;18.218;2023-09-19T02:05:41;16.83;;;10.13;;
13443;SDS011;6794;59.218;18.218;2023-09-19T02:08:15;20.50;;;10.40;;
13443;SDS011;6794;59.218;18.218;2023-09-19T02:10:42;17.67;;;10.73;;
13443;SDS011;6794;59.218;18.218;2023-09-19T02:13:11;16.53;;;11.53;;
13443;SDS011;6794;59.218;18.218;2023-09-19T02:15:37;16.10;;;11.23;;
13443;SDS011;6794;59.218;18.218;2023-09-19T02:18:03;18.93;;;11.27;;
13443;SDS011;6794;59.218;18.218;2023-09-19T02:20:29;17.10;;;11.83;;
13443;SDS011;6794;59.218;18.218;2023-09-19T02:22:57;16.70;;;12.57;;
13443;SDS011;6794;59.218;18.218;2023-09-19T02:25:23;18.65;;;12.20;;
13443;SDS011;6794;59.218;18.218;2023-09-19T02:27:51;17.53;;;10.83;;
13443;SDS011;6794;59.218;18.218;2023-09-19T02:30:19;16.53;;;11.67;;
13443;SDS011;6794;59.218;18.218;2023-09-19T02:32:50;18.80;;;12.97;;
13443;SDS011;6794;59.218;18.218;2023-09-19T02:35:16;20.63;;;13.60;;
13443;SDS011;6794;59.218;18.218;2023-09-19T02:37:44;25.58;;;16.85;;
13443;SDS011;6794;59.218;18.218;2023-09-19T02:40:10;27.63;;;18.75;;
13443;SDS011;6794;59.218;18.218;2023-09-19T02:42:52;25.37;;;15.57;;
13443;SDS011;6794;59.218;18.218;2023-09-19T02:45:18;24.23;;;15.97;;
13443;SDS011;6794;59.218;18.218;2023-09-19T02:47:45;23.87;;;15.47;;
13443;SDS011;6794;59.218;18.218;2023-09-19T02:50:11;28.10;;;18.75;;
13443;SDS011;6794;59.218;18.218;2023-09-19T02:52:38;26.13;;;16.93;;
13443;SDS011;6794;59.218;18.218;2023-09-19T02:55:04;26.83;;;16.17;;
13443;SDS011;6794;59.218;18.218;2023-09-19T02:57:34;22.47;;;15.57;;
13443;SDS011;6794;59.218;18.218;2023-09-19T03:00:01;23.17;;;16.10;;
13443;SDS011;6794;59.218;18.218;2023-09-19T03:02:27;23.53;;;15.80;;
13443;SDS011;6794;59.218;18.218;2023-09-19T03:04:53;25.97;;;17.10;;
13443;SDS011;6794;59.218;18.218;2023-09-19T03:07:21;32.92;;;20.55;;
13443;SDS011;6794;59.218;18.218;2023-09-19T03:09:47;21.67;;;16.03;;
13443;SDS011;6794;59.218;18.218;2023-09-19T03:12:14;25.90;;;16.20;;
13443;SDS011;6794;59.218;18.218;2023-09-19T03:14:40;27.93;;;17.27;;
13443;SDS011;6794;59.218;18.218;2023-09-19T03:17:06;23.43;;;15.83;;
13443;SDS011;6794;59.218;18.218;2023-09-19T03:19:34;23.30;;;15.53;;
13443;SDS011;6794;59.218;18.218;2023-09-19T03:22:00;21.93;;;16.10;;
13443;SDS011;6794;59.218;18.218;2023-09-19T03:24:27;25.23;;;17.57;;
13443;SDS011;6794;59.218;18.218;2023-09-19T03:26:54;27.43;;;18.20;;
13443;SDS011;6794;59.218;18.218;2023-09-19T03:29:20;26.53;;;16.43;;
13443;SDS011;6794;59.218;18.218;2023-09-19T03:31:47;27.83;;;17.23;;
13443;SDS011;6794;59.218;18.218;2023-09-19T03:34:13;27.37;;;16.77;;
13443;SDS011;6794;59.218;18.218;2023-09-19T03:36:39;23.97;;;16.40;;
13443;SDS011;6794;59.218;18.218;2023-09-19T03:39:06;26.10;;;18.07;;
13443;SDS011;6794;59.218;18.218;2023-09-19T03:41:32;24.37;;;16.63;;
13443;SDS011;6794;59.218;18.218;2023-09-19T03:44:01;29.60;;;21.45;;
13443;SDS011;6794;59.218;18.218;2023-09-19T03:46:27;27.17;;;19.50;;
13443;SDS011;6794;59.218;18.218;2023-09-19T03:48:55;27.40;;;17.87;;
13443;SDS011;6794;59.218;18.218;2023-09-19T03:51:21;31.30;;;21.45;;
13443;SDS011;6794;59.218;18.218;2023-09-19T03:53:47;29.57;;;18.87;;
13443;SDS011;6794;59.218;18.218;2023-09-19T03:56:15;25.80;;;19.40;;
13443;SDS011;6794;59.218;18.218;2023-09-19T03:58:41;28.30;;;18.57;;
13443;SDS011;6794;59.218;18.218;2023-09-19T04:01:07;26.00;;;17.80;;
13443;SDS011;6794;59.218;18.218;2023-09-19T04:03:33;30.55;;;21.23;;
13443;SDS011;6794;59.218;18.218;2023-09-19T04:06:10;25.97;;;20.37;;
13443;SDS011;6794;59.218;18.218;2023-09-19T04:08:36;32.90;;;19.90;;
13443;SDS011;6794;59.218;18.218;2023-09-19T04:11:03;30.87;;;18.90;;
13443;SDS011;6794;59.218;18.218;2023-09-19T04:13:29;25.87;;;17.97;;
13443;SDS011;6794;59.218;18.218;2023-09-19T04:15:55;27.10;;;18.13;;
13443;SDS011;6794;59.218;18.218;2023-09-19T04:18:21;28.87;;;17.47;;
13443;SDS011;6794;59.218;18.218;2023-09-19T04:20:49;29.53;;;19.43;;
13443;SDS011;6794;59.218;18.218;2023-09-19T04:23:15;33.85;;;23.13;;
13443;SDS011;6794;59.218;18.218;2023-09-19T04:25:42;33.17;;;20.27;;
13443;SDS011;6794;59.218;18.218;2023-09-19T04:28:08;34.00;;;20.37;;
13443;SDS011;6794;59.218;18.218;2023-09-19T04:30:36;31.83;;;20.47;;
13443;SDS011;6794;59.218;18.218;2023-09-19T04:33:02;34.17;;;20.30;;
13443;SDS011;6794;59.218;18.218;2023-09-19T04:35:28;28.30;;;19.63;;
13443;SDS011;6794;59.218;18.218;2023-09-19T04:37:57;29.90;;;19.07;;
13443;SDS011;6794;59.218;18.218;2023-09-19T04:40:23;28.77;;;19.80;;
13443;SDS011;6794;59.218;18.218;2023-09-19T04:42:54;33.93;;;19.37;;
13443;SDS011;6794;59.218;18.218;2023-09-19T04:45:24;26.27;;;20.23;;
13443;SDS011;6794;59.218;18.218;2023-09-19T04:47:51;23.63;;;18.67;;
13443;SDS011;6794;59.218;18.218;2023-09-19T04:50:18;28.50;;;20.00;;
13443;SDS011;6794;59.218;18.218;2023-09-19T04:52:44;30.70;;;19.97;;
13443;SDS011;6794;59.218;18.218;2023-09-19T04:55:11;29.60;;;19.47;;
13443;SDS011;6794;59.218;18.218;2023-09-19T04:57:41;35.35;;;24.25;;
13443;SDS011;6794;59.218;18.218;2023-09-19T05:00:07;32.50;;;24.63;;
13443;SDS011;6794;59.218;18.218;2023-09-19T05:02:37;25.67;;;19.93;;
13443;SDS011;6794;59.218;18.218;2023-09-19T05:05:03;25.57;;;18.63;;
13443;SDS011;6794;59.218;18.218;2023-09-19T05:07:30;33.60;;;22.75;;
13443;SDS011;6794;59.218;18.218;2023-09-19T05:09:56;28.50;;;19.30;;
13443;SDS011;6794;59.218;18.218;2023-09-19T05:12:22;28.03;;;20.57;;
13443;SDS011;6794;59.218;18.218;2023-09-19T05:14:48;31.23;;;19.70;;
13443;SDS011;6794;59.218;18.218;2023-09-19T05:17:14;26.00;;;19.67;;
13443;SDS011;6794;59.218;18.218;2023-09-19T05:19:42;32.60;;;20.13;;
13443;SDS011;6794;59.218;18.218;2023-09-19T05:22:08;33.70;;;19.97;;
13443;SDS011;6794;59.218;18.218;2023-09-19T05:24:34;35.03;;;22.23;;
13443;SDS011;6794;59.218;18.218;2023-09-19T05:27:00;30.53;;;21.07;;
13443;SDS011;6794;59.218;18.218;2023-09-19T05:29:26;27.93;;;19.27;;
13443;SDS011;6794;59.218;18.218;2023-09-19T05:31:53;29.03;;;18.57;;
13443;SDS011;6794;59.218;18.218;2023-09-19T05:34:19;32.43;;;20.20;;
13443;SDS011;6794;59.218;18.218;2023-09-19T05:36:45;31.10;;;19.33;;
13443;SDS011;6794;59.218;18.218;2023-09-19T05:39:13;31.97;;;20.80;;
13443;SDS011;6794;59.218;18.218;2023-09-19T05:41:39;32.97;;;21.10;;
13443;SDS011;6794;59.218;18.218;2023-09-19T05:44:06;30.50;;;19.97;;
13443;SDS011;6794;59.218;18.218;2023-09-19T05:46:33;32.10;;;19.77;;
13443;SDS011;6794;59.218;18.218;2023-09-19T05:48:59;30.57;;;20.53;;
13443;SDS011;6794;59.218;18.218;2023-09-19T05:51:25;28.50;;;21.37;;
13443;SDS011;6794;59.218;18.218;2023-09-19T05:53:53;32.37;;;21.50;;
13443;SDS011;6794;59.218;18.218;2023-09-19T05:56:19;29.03;;;20.70;;
13443;SDS011;6794;59.218;18.218;2023-09-19T05:58:46;28.67;;;21.90;;
13443;SDS011;6794;59.218;18.218;2023-09-19T06:01:12;28.37;;;20.70;;
13443;SDS011;6794;59.218;18.218;2023-09-19T06:03:38;32.28;;;23.92;;
13443;SDS011;6794;59.218;18.218;2023-09-19T06:06:04;37.33;;;28.10;;
13443;SDS011;6794;59.218;18.218;2023-09-19T06:08:32;42.70;;;26.70;;
13443;SDS011;6794;59.218;18.218;2023-09-19T06:10:58;39.90;;;24.97;;
13443;SDS011;6794;59.218;18.218;2023-09-19T06:13:24;38.37;;;25.10;;
13443;SDS011;6794;59.218;18.218;2023-09-19T06:15:51;44.03;;;29.30;;
13443;SDS011;6794;59.218;18.218;2023-09-19T06:18:17;34.75;;;27.90;;
13443;SDS011;6794;59.218;18.218;2023-09-19T06:20:47;34.10;;;27.23;;
13443;SDS011;6794;59.218;18.218;2023-09-19T06:23:14;33.70;;;23.63;;
13443;SDS011;6794;59.218;18.218;2023-09-19T06:25:40;38.83;;;28.48;;
13443;SDS011;6794;59.218;18.218;2023-09-19T06:28:07;32.83;;;24.60;;
13443;SDS011;6794;59.218;18.218;2023-09-19T06:30:36;32.20;;;24.60;;
13443;SDS011;6794;59.218;18.218;2023-09-19T06:33:05;34.23;;;28.60;;
13443;SDS011;6794;59.218;18.218;2023-09-19T06:35:34;36.93;;;24.60;;
13443;SDS011;6794;59.218;18.218;2023-09-19T06:38:04;38.53;;;29.30;;
13443;SDS011;6794;59.218;18.218;2023-09-19T06:40:30;36.50;;;26.00;;
13443;SDS011;6794;59.218;18.218;2023-09-19T06:42:57;34.57;;;24.40;;
13443;SDS011;6794;59.218;18.218;2023-09-19T06:45:23;36.03;;;24.63;;
13443;SDS011;6794;59.218;18.218;2023-09-19T06:47:51;37.83;;;25.50;;
13443;SDS011;6794;59.218;18.218;2023-09-19T06:50:21;41.95;;;28.15;;
13443;SDS011;6794;59.218;18.218;2023-09-19T06:52:51;37.53;;;24.23;;
13443;SDS011;6794;59.218;18.218;2023-09-19T06:55:19;39.13;;;25.27;;
13443;SDS011;6794;59.218;18.218;2023-09-19T06:57:45;41.33;;;30.90;;
13443;SDS011;6794;59.218;18.218;2023-09-19T07:00:12;40.78;;;32.50;;
13443;SDS011;6794;59.218;18.218;2023-09-19T07:05:36;37.95;;;29.63;;
13443;SDS011;6794;59.218;18.218;2023-09-19T07:08:04;35.10;;;24.53;;
13443;SDS011;6794;59.218;18.218;2023-09-19T07:10:31;36.72;;;27.92;;
13443;SDS011;6794;59.218;18.218;2023-09-19T07:13:01;31.80;;;23.63;;
13443;SDS011;6794;59.218;18.218;2023-09-19T07:15:27;33.37;;;23.73;;
13443;SDS011;6794;59.218;18.218;2023-09-19T07:17:54;34.73;;;24.73;;
13443;SDS011;6794;59.218;18.218;2023-09-19T07:20:21;29.27;;;21.97;;
13443;SDS011;6794;59.218;18.218;2023-09-19T07:22:48;43.60;;;31.90;;
13443;SDS011;6794;59.218;18.218;2023-09-19T07:25:15;27.20;;;23.98;;
13443;SDS011;6794;59.218;18.218;2023-09-19T07:27:41;27.75;;;22.60;;
13443;SDS011;6794;59.218;18.218;2023-09-19T07:30:08;22.25;;;19.85;;
13443;SDS011;6794;59.218;18.218;2023-09-19T07:32:34;23.53;;;20.33;;
13443;SDS011;6794;59.218;18.218;2023-09-19T07:35:03;20.47;;;15.67;;
13443;SDS011;6794;59.218;18.218;2023-09-19T07:37:30;26.08;;;21.00;;
13443;SDS011;6794;59.218;18.218;2023-09-19T07:39:59;28.67;;;18.37;;
13443;SDS011;6794;59.218;18.218;2023-09-19T07:42:26;27.20;;;19.33;;
13443;SDS011;6794;59.218;18.218;2023-09-19T07:44:52;29.63;;;21.00;;
13443;SDS011;6794;59.218;18.218;2023-09-19T07:47:19;28.83;;;19.93;;
13443;SDS011;6794;59.218;18.218;2023-09-19T07:49:48;29.07;;;19.00;;
13443;SDS011;6794;59.218;18.218;2023-09-19T07:52:15;34.23;;;21.30;;
13443;SDS011;6794;59.218;18.218;2023-09-19T07:54:41;29.87;;;22.53;;
13443;SDS011;6794;59.218;18.218;2023-09-19T07:57:09;32.30;;;24.03;;
13443;SDS011;6794;59.218;18.218;2023-09-19T07:59:36;30.80;;;23.53;;
13443;SDS011;6794;59.218;18.218;2023-09-19T08:02:03;31.23;;;21.40;;
13443;SDS011;6794;59.218;18.218;2023-09-19T08:04:29;29.53;;;22.07;;
13443;SDS011;6794;59.218;18.218;2023-09-19T08:06:58;29.63;;;21.07;;
13443;SDS011;6794;59.218;18.218;2023-09-19T08:09:25;29.73;;;23.10;;
13443;SDS011;6794;59.218;18.218;2023-09-19T08:11:52;30.60;;;21.20;;
13443;SDS011;6794;59.218;18.218;2023-09-19T08:14:19;27.97;;;20.07;;
13443;SDS011;6794;59.218;18.218;2023-09-19T08:16:45;29.63;;;19.87;;
13443;SDS011;6794;59.218;18.218;2023-09-19T08:19:11;25.33;;;18.80;;
13443;SDS011;6794;59.218;18.218;2023-09-19T08:21:37;27.80;;;20.00;;
13443;SDS011;6794;59.218;18.218;2023-09-19T08:24:03;26.30;;;19.47;;
13443;SDS011;6794;59.218;18.218;2023-09-19T08:26:29;29.10;;;21.58;;
13443;SDS011;6794;59.218;18.218;2023-09-19T08:28:56;23.87;;;17.63;;
13443;SDS011;6794;59.218;18.218;2023-09-19T08:31:22;25.17;;;17.37;;
13443;SDS011;6794;59.218;18.218;2023-09-19T08:33:49;26.87;;;18.40;;
13443;SDS011;6794;59.218;18.218;2023-09-19T08:36:16;26.90;;;18.00;;
13443;SDS011;6794;59.218;18.218;2023-09-19T08:38:42;24.30;;;18.13;;
13443;SDS011;6794;59.218;18.218;2023-09-19T08:41:08;28.43;;;17.53;;
13443;SDS011;6794;59.218;18.218;2023-09-19T08:43:35;24.27;;;18.27;;
13443;SDS011;6794;59.218;18.218;2023-09-19T08:46:10;21.97;;;19.43;;
13443;SDS011;6794;59.218;18.218;2023-09-19T08:49:24;24.23;;;17.33;;
13443;SDS011;6794;59.218;18.218;2023-09-19T08:51:28;21.83;;;17.53;;
13443;SDS011;6794;59.218;18.218;2023-09-19T08:56:32;25.20;;;18.47;;
13443;SDS011;6794;59.218;18.218;2023-09-19T08:59:02;25.45;;;17.70;;
13443;SDS011;6794;59.218;18.218;2023-09-19T09:01:36;23.30;;;17.23;;
13443;SDS011;6794;59.218;18.218;2023-09-19T09:04:02;26.37;;;17.57;;
13443;SDS011;6794;59.218;18.218;2023-09-19T09:06:29;24.10;;;16.60;;
13443;SDS011;6794;59.218;18.218;2023-09-19T09:08:57;19.90;;;15.40;;
13443;SDS011;6794;59.218;18.218;2023-09-19T09:11:23;20.17;;;15.40;;
13443;SDS011;6794;59.218;18.218;2023-09-19T09:13:53;17.47;;;15.57;;
13443;SDS011;6794;59.218;18.218;2023-09-19T09:16:19;20.95;;;15.35;;
13443;SDS011;6794;59.218;18.218;2023-09-19T09:18:45;17.20;;;13.93;;
13443;SDS011;6794;59.218;18.218;2023-09-19T09:21:17;18.27;;;13.30;;
13443;SDS011;6794;59.218;18.218;2023-09-19T09:23:43;20.10;;;13.83;;
13443;SDS011;6794;59.218;18.218;2023-09-19T09:26:09;16.10;;;14.00;;
13443;SDS011;6794;59.218;18.218;2023-09-19T09:28:35;20.87;;;13.87;;
13443;SDS011;6794;59.218;18.218;2023-09-19T09:31:04;19.20;;;13.93;;
13443;SDS011;6794;59.218;18.218;2023-09-19T09:33:34;19.57;;;14.20;;
13443;SDS011;6794;59.218;18.218;2023-09-19T09:36:01;17.87;;;14.60;;
13443;SDS011;6794;59.218;18.218;2023-09-19T09:38:44;16.37;;;13.43;;
13443;SDS011;6794;59.218;18.218;2023-09-19T09:41:11;16.07;;;12.20;;
13443;SDS011;6794;59.218;18.218;2023-09-19T09:43:41;14.30;;;11.77;;
13443;SDS011;6794;59.218;18.218;2023-09-19T09:46:14;17.53;;;12.47;;
13443;SDS011;6794;59.218;18.218;2023-09-19T09:48:46;17.63;;;11.33;;
13443;SDS011;6794;59.218;18.218;2023-09-19T09:51:33;15.33;;;12.20;;
13443;SDS011;6794;59.218;18.218;2023-09-19T09:56:53;13.53;;;10.83;;
13443;SDS011;6794;59.218;18.218;2023-09-19T09:59:22;16.53;;;10.93;;
13443;SDS011;6794;59.218;18.218;2023-09-19T10:01:49;13.70;;;10.20;;
13443;SDS011;6794;59.218;18.218;2023-09-19T10:04:28;11.50;;;9.87;;
13443;SDS011;6794;59.218;18.218;2023-09-19T10:07:01;10.43;;;9.30;;
13443;SDS011;6794;59.218;18.218;2023-09-19T10:09:45;12.47;;;10.17;;
13443;SDS011;6794;59.218;18.218;2023-09-19T10:12:12;13.10;;;10.80;;
13443;SDS011;6794;59.218;18.218;2023-09-19T10:14:39;10.83;;;9.73;;
13443;SDS011;6794;59.218;18.218;2023-09-19T10:17:09;10.63;;;8.37;;
13443;SDS011;6794;59.218;18.218;2023-09-19T10:22:01;9.87;;;8.70;;
13443;SDS011;6794;59.218;18.218;2023-09-19T10:24:29;13.03;;;8.60;;
13443;SDS011;6794;59.218;18.218;2023-09-19T10:26:56;9.80;;;8.60;;
13443;SDS011;6794;59.218;18.218;2023-09-19T10:29:22;9.67;;;8.43;;
13443;SDS011;6794;59.218;18.218;2023-09-19T10:31:51;9.93;;;7.70;;
13443;SDS011;6794;59.218;18.218;2023-09-19T10:34:18;12.07;;;7.90;;
13443;SDS011;6794;59.218;18.218;2023-09-19T10:36:45;9.07;;;7.47;;
13443;SDS011;6794;59.218;18.218;2023-09-19T10:39:14;10.73;;;7.60;;
13443;SDS011;6794;59.218;18.218;2023-09-19T10:41:53;10.47;;;7.40;;
13443;SDS011;6794;59.218;18.218;2023-09-19T10:44:21;9.00;;;6.73;;
13443;SDS011;6794;59.218;18.218;2023-09-19T10:46:50;11.60;;;7.30;;
13443;SDS011;6794;59.218;18.218;2023-09-19T10:49:17;7.80;;;6.97;;
13443;SDS011;6794;59.218;18.218;2023-09-19T10:51:44;7.53;;;6.53;;
13443;SDS011;6794;59.218;18.218;2023-09-19T10:54:12;9.70;;;6.93;;
13443;SDS011;6794;59.218;18.218;2023-09-19T10:56:59;10.73;;;6.03;;
13443;SDS011;6794;59.218;18.218;2023-09-19T10:59:25;8.63;;;5.47;;
13443;SDS011;6794;59.218;18.218;2023-09-19T11:01:59;8.33;;;6.50;;
13443;SDS011;6794;59.218;18.218;2023-09-19T11:04:30;9.40;;;7.13;;
13443;SDS011;6794;59.218;18.218;2023-09-19T11:09:45;6.13;;;5.50;;
13443;SDS011;6794;59.218;18.218;2023-09-19T11:12:11;7.23;;;4.87;;
13443;SDS011;6794;59.218;18.218;2023-09-19T11:14:39;7.27;;;4.57;;
13443;SDS011;6794;59.218;18.218;2023-09-19T11:22:19;5.00;;;4.30;;
13443;SDS011;6794;59.218;18.218;2023-09-19T11:24:47;5.73;;;3.60;;
13443;SDS011;6794;59.218;18.218;2023-09-19T11:27:15;4.23;;;2.77;;
13443;SDS011;6794;59.218;18.218;2023-09-19T11:29:43;7.00;;;3.23;;
13443;SDS011;6794;59.218;18.218;2023-09-19T11:32:10;4.60;;;2.60;;
13443;SDS011;6794;59.218;18.218;2023-09-19T11:42:44;3.40;;;2.20;;
13443;SDS011;6794;59.218;18.218;2023-09-19T11:47:55;3.93;;;2.83;;
13443;SDS011;6794;59.218;18.218;2023-09-19T11:50:23;3.60;;;2.67;;
13443;SDS011;6794;59.218;18.218;2023-09-19T11:52:50;4.30;;;2.37;;
13443;SDS011;6794;59.218;18.218;2023-09-19T11:55:17;3.10;;;2.50;;
13443;SDS011;6794;59.218;18.218;2023-09-19T11:57:47;2.40;;;2.20;;
13443;SDS011;6794;59.218;18.218;2023-09-19T12:00:18;2.10;;;1.90;;
13443;SDS011;6794;59.218;18.218;2023-09-19T12:02:47;2.40;;;2.17;;
13443;SDS011;6794;59.218;18.218;2023-09-19T12:05:15;2.20;;;1.90;;
13443;SDS011;6794;59.218;18.218;2023-09-19T12:07:42;1.93;;;1.60;;
13443;SDS011;6794;59.218;18.218;2023-09-19T12:10:12;2.58;;;1.67;;
13443;SDS011;6794;59.218;18.218;2023-09-19T12:12:45;2.83;;;1.50;;
13443;SDS011;6794;59.218;18.218;2023-09-19T12:15:13;1.90;;;1.47;;
13443;SDS011;6794;59.218;18.218;2023-09-19T12:17:40;1.97;;;1.47;;
13443;SDS011;6794;59.218;18.218;2023-09-19T12:20:07;2.70;;;1.57;;
13443;SDS011;6794;59.218;18.218;2023-09-19T12:22:44;2.07;;;1.80;;
13443;SDS011;6794;59.218;18.218;2023-09-19T12:25:11;2.83;;;1.47;;
13443;SDS011;6794;59.218;18.218;2023-09-19T12:27:47;2.10;;;1.70;;
13443;SDS011;6794;59.218;18.218;2023-09-19T12:30:14;2.80;;;1.63;;
13443;SDS011;6794;59.218;18.218;2023-09-19T12:32:45;3.80;;;1.60;;
13443;SDS011;6794;59.218;18.218;2023-09-19T12:35:33;2.60;;;1.67;;
13443;SDS011;6794;59.218;18.218;2023-09-19T12:38:04;2.67;;;1.60;;
13443;SDS011;6794;59.218;18.218;2023-09-19T12:40:31;1.90;;;1.43;;
13443;SDS011;6794;59.218;18.218;2023-09-19T12:42:58;2.60;;;1.50;;
13443;SDS011;6794;59.218;18.218;2023-09-19T12:45:27;2.70;;;1.80;;
13443;SDS011;6794;59.218;18.218;2023-09-19T12:50:58;3.03;;;1.50;;
13443;SDS011;6794;59.218;18.218;2023-09-19T12:53:25;2.53;;;1.60;;
13443;SDS011;6794;59.218;18.218;2023-09-19T12:56:00;2.43;;;1.43;;
13443;SDS011;6794;59.218;18.218;2023-09-19T12:58:26;2.33;;;1.57;;
13443;SDS011;6794;59.218;18.218;2023-09-19T13:00:52;3.40;;;1.70;;
13443;SDS011;6794;59.218;18.218;2023-09-19T13:06:05;4.27;;;1.70;;
13443;SDS011;6794;59.218;18.218;2023-09-19T13:08:34;2.57;;;1.60;;
13443;SDS011;6794;59.218;18.218;2023-09-19T13:11:13;2.42;;;1.80;;
13443;SDS011;6794;59.218;18.218;2023-09-19T13:13:40;2.87;;;1.47;;
13443;SDS011;6794;59.218;18.218;2023-09-19T13:16:07;2.07;;;1.53;;
13443;SDS011;6794;59.218;18.218;2023-09-19T13:18:46;4.73;;;1.70;;
13443;SDS011;6794;59.218;18.218;2023-09-19T13:21:15;3.50;;;1.60;;
13443;SDS011;6794;59.218;18.218;2023-09-19T13:23:54;2.70;;;1.70;;
13443;SDS011;6794;59.218;18.218;2023-09-19T13:26:27;3.13;;;1.80;;
13443;SDS011;6794;59.218;18.218;2023-09-19T13:28:54;4.97;;;1.70;;
13443;SDS011;6794;59.218;18.218;2023-09-19T13:31:20;2.67;;;1.80;;
13443;SDS011;6794;59.218;18.218;2023-09-19T13:33:47;3.40;;;2.10;;
13443;SDS011;6794;59.218;18.218;2023-09-19T13:36:14;5.30;;;1.83;;
13443;SDS011;6794;59.218;18.218;2023-09-19T13:38:40;8.67;;;1.83;;
13443;SDS011;6794;59.218;18.218;2023-09-19T13:41:09;3.17;;;1.97;;
13443;SDS011;6794;59.218;18.218;2023-09-19T13:43:36;7.53;;;2.17;;
13443;SDS011;6794;59.218;18.218;2023-09-19T13:46:03;4.30;;;1.70;;
13443;SDS011;6794;59.218;18.218;2023-09-19T13:48:29;3.07;;;1.73;;
13443;SDS011;6794;59.218;18.218;2023-09-19T13:50:56;5.10;;;2.00;;
13443;SDS011;6794;59.218;18.218;2023-09-19T13:53:22;3.88;;;2.30;;
13443;SDS011;6794;59.218;18.218;2023-09-19T13:55:48;3.87;;;2.37;;
13443;SDS011;6794;59.218;18.218;2023-09-19T13:58:14;5.03;;;2.00;;
13443;SDS011;6794;59.218;18.218;2023-09-19T14:00:41;3.03;;;1.60;;
13443;SDS011;6794;59.218;18.218;2023-09-19T14:03:07;3.30;;;2.03;;
13443;SDS011;6794;59.218;18.218;2023-09-19T14:05:35;4.63;;;2.00;;
13443;SDS011;6794;59.218;18.218;2023-09-19T14:08:02;4.73;;;2.07;;
13443;SDS011;6794;59.218;18.218;2023-09-19T14:10:28;2.67;;;1.90;;
13443;SDS011;6794;59.218;18.218;2023-09-19T14:12:56;3.37;;;1.83;;
13443;SDS011;6794;59.218;18.218;2023-09-19T14:15:24;3.30;;;2.20;;
13443;SDS011;6794;59.218;18.218;2023-09-19T14:17:58;3.97;;;2.03;;
13443;SDS011;6794;59.218;18.218;2023-09-19T14:20:25;4.27;;;1.90;;
13443;SDS011;6794;59.218;18.218;2023-09-19T14:22:54;5.40;;;2.00;;
13443;SDS011;6794;59.218;18.218;2023-09-19T14:25:20;6.17;;;1.90;;
13443;SDS011;6794;59.218;18.218;2023-09-19T14:27:47;3.40;;;2.03;;
13443;SDS011;6794;59.218;18.218;2023-09-19T14:30:13;3.10;;;2.00;;
13443;SDS011;6794;59.218;18.218;2023-09-19T14:32:39;4.17;;;2.20;;
13443;SDS011;6794;59.218;18.218;2023-09-19T14:35:06;4.30;;;2.10;;
13443;SDS011;6794;59.218;18.218;2023-09-19T14:37:32;4.57;;;2.03;;
13443;SDS011;6794;59.218;18.218;2023-09-19T14:39:58;5.83;;;2.43;;
13443;SDS011;6794;59.218;18.218;2023-09-19T14:42:25;2.80;;;1.77;;
13443;SDS011;6794;59.218;18.218;2023-09-19T14:44:51;6.07;;;2.10;;
13443;SDS011;6794;59.218;18.218;2023-09-19T14:47:17;2.80;;;1.90;;
13443;SDS011;6794;59.218;18.218;2023-09-19T14:49:43;4.77;;;1.87;;
13443;SDS011;6794;59.218;18.218;2023-09-19T14:52:10;2.67;;;1.67;;
13443;SDS011;6794;59.218;18.218;2023-09-19T14:54:37;2.50;;;1.57;;
13443;SDS011;6794;59.218;18.218;2023-09-19T14:57:06;3.73;;;1.80;;
13443;SDS011;6794;59.218;18.218;2023-09-19T14:59:33;2.80;;;1.73;;
13443;SDS011;6794;59.218;18.218;2023-09-19T15:02:06;3.47;;;1.97;;
13443;SDS011;6794;59.218;18.218;2023-09-19T15:04:32;3.13;;;1.70;;
13443;SDS011;6794;59.218;18.218;2023-09-19T15:06:59;1.93;;;1.50;;
13443;SDS011;6794;59.218;18.218;2023-09-19T15:09:25;4.57;;;1.80;;
13443;SDS011;6794;59.218;18.218;2023-09-19T15:11:54;3.23;;;1.60;;
13443;SDS011;6794;59.218;18.218;2023-09-19T15:14:20;4.57;;;1.90;;
13443;SDS011;6794;59.218;18.218;2023-09-19T15:16:47;5.35;;;1.92;;
13443;SDS011;6794;59.218;18.218;2023-09-19T15:19:13;4.13;;;1.70;;
13443;SDS011;6794;59.218;18.218;2023-09-19T15:21:39;2.00;;;1.60;;
13443;SDS011;6794;59.218;18.218;2023-09-19T15:24:06;2.57;;;1.57;;
13443;SDS011;6794;59.218;18.218;2023-09-19T15:26:37;2.40;;;1.40;;
13443;SDS011;6794;59.218;18.218;2023-09-19T15:29:05;2.80;;;1.43;;